Terminal Aerodrome Forecast
Issued by NWS

Home | Current Version | Previous Version | Graphics & Text | Print | Product List | Glossary On
Versions: 1 2 3 4 5 6 7 8 9 10 11 12 13 14 15 16 17 18 19 20 21
000
FTUS42 KMHX 150528
TAFOAJ
TAF
KOAJ 150528Z 1506/1606 22010KT P6SM VCSH SCT007 BKN070
     FM150700 33005KT P6SM VCSH OVC007
     FM151300 02010G15KT P6SM OVC015
     FM151500 04010G15KT P6SM SCT015 OVC035
     FM152100 04010KT P6SM VCSH SCT015 OVC035
      AMD LTD TO CLD VIS AND WIND=

USA.gov is the U.S. government's official web portal to all federal, state and local government web resources and services.